sensor_id;sensor_type;location;lat;lon;timestamp;pressure;altitude;pressure_sealevel;temperature;humidity
7832;BME280;3961;42.058;25.586;2023-02-23T00:00:28;62967.25;;;6.69;100.00
7832;BME280;3961;42.058;25.586;2023-02-23T00:02:55;63019.09;;;7.11;100.00
7832;BME280;3961;42.058;25.586;2023-02-23T00:05:23;63001.50;;;6.97;100.00
7832;BME280;3961;42.058;25.586;2023-02-23T00:07:49;63007.50;;;7.05;100.00
7832;BME280;3961;42.058;25.586;2023-02-23T00:10:16;63000.25;;;7.01;100.00
7832;BME280;3961;42.058;25.586;2023-02-23T00:12:43;63007.50;;;7.05;100.00
7832;BME280;3961;42.058;25.586;2023-02-23T00:15:10;63003.47;;;7.01;100.00
7832;BME280;3961;42.058;25.586;2023-02-23T00:17:36;63005.19;;;7.03;100.00
7832;BME280;3961;42.058;25.586;2023-02-23T00:20:03;62987.69;;;6.85;100.00
7832;BME280;3961;42.058;25.586;2023-02-23T00:22:33;63010.94;;;7.08;100.00
7832;BME280;3961;42.058;25.586;2023-02-23T00:24:59;63013.50;;;7.13;100.00
7832;BME280;3961;42.058;25.586;2023-02-23T00:27:24;63020.72;;;7.17;100.00
7832;BME280;3961;42.058;25.586;2023-02-23T00:29:50;63025.66;;;7.19;100.00
7832;BME280;3961;42.058;25.586;2023-02-23T00:32:17;63042.25;;;7.38;100.00
7832;BME280;3961;42.058;25.586;2023-02-23T00:34:45;63043.16;;;7.36;100.00
7832;BME280;3961;42.058;25.586;2023-02-23T00:37:16;63043.50;;;7.34;100.00
7832;BME280;3961;42.058;25.586;2023-02-23T00:39:41;63052.72;;;7.43;100.00
7832;BME280;3961;42.058;25.586;2023-02-23T00:42:07;63056.75;;;7.46;100.00
7832;BME280;3961;42.058;25.586;2023-02-23T00:44:33;63068.16;;;7.61;100.00
7832;BME280;3961;42.058;25.586;2023-02-23T00:47:00;63070.78;;;7.61;100.00
7832;BME280;3961;42.058;25.586;2023-02-23T00:49:25;63057.53;;;7.49;100.00
7832;BME280;3961;42.058;25.586;2023-02-23T00:51:51;63087.25;;;7.73;100.00
7832;BME280;3961;42.058;25.586;2023-02-23T00:54:18;63058.44;;;7.48;100.00
7832;BME280;3961;42.058;25.586;2023-02-23T00:56:45;63099.56;;;7.86;100.00
7832;BME280;3961;42.058;25.586;2023-02-23T00:59:11;63096.91;;;7.86;100.00
7832;BME280;3961;42.058;25.586;2023-02-23T01:01:38;63113.72;;;7.96;100.00
7832;BME280;3961;42.058;25.586;2023-02-23T01:04:06;63068.38;;;7.63;100.00
7832;BME280;3961;42.058;25.586;2023-02-23T01:06:32;63055.59;;;7.45;100.00
7832;BME280;3961;42.058;25.586;2023-02-23T01:08:58;63052.97;;;7.45;100.00
7832;BME280;3961;42.058;25.586;2023-02-23T01:11:29;63048.34;;;7.41;100.00
7832;BME280;3961;42.058;25.586;2023-02-23T01:13:58;63049.84;;;7.40;100.00
7832;BME280;3961;42.058;25.586;2023-02-23T01:16:31;63046.97;;;7.37;100.00
7832;BME280;3961;42.058;25.586;2023-02-23T01:18:58;63017.88;;;7.14;100.00
7832;BME280;3961;42.058;25.586;2023-02-23T01:21:33;63034.53;;;7.29;100.00
7832;BME280;3961;42.058;25.586;2023-02-23T01:23:59;63032.47;;;7.29;100.00
7832;BME280;3961;42.058;25.586;2023-02-23T01:26:35;63028.78;;;7.24;100.00
7832;BME280;3961;42.058;25.586;2023-02-23T01:29:08;63020.72;;;7.17;100.00
7832;BME280;3961;42.058;25.586;2023-02-23T01:31:34;63024.50;;;7.18;100.00
7832;BME280;3961;42.058;25.586;2023-02-23T01:34:01;63020.84;;;7.12;100.00
7832;BME280;3961;42.058;25.586;2023-02-23T01:36:28;63032.81;;;7.27;100.00
7832;BME280;3961;42.058;25.586;2023-02-23T01:38:54;63040.53;;;7.36;100.00
7832;BME280;3961;42.058;25.586;2023-02-23T01:41:24;63046.03;;;7.39;100.00
7832;BME280;3961;42.058;25.586;2023-02-23T01:46:19;63010.38;;;7.07;100.00
7832;BME280;3961;42.058;25.586;2023-02-23T01:48:45;63013.00;;;7.07;100.00
7832;BME280;3961;42.058;25.586;2023-02-23T01:51:16;63024.25;;;7.15;100.00
7832;BME280;3961;42.058;25.586;2023-02-23T01:53:53;63020.38;;;7.19;100.00
7832;BME280;3961;42.058;25.586;2023-02-23T01:56:24;63023.59;;;7.19;100.00
7832;BME280;3961;42.058;25.586;2023-02-23T01:58:54;63014.50;;;7.06;100.00
7832;BME280;3961;42.058;25.586;2023-02-23T02:01:22;63023.13;;;7.14;100.00
7832;BME280;3961;42.058;25.586;2023-02-23T02:06:17;62969.31;;;6.69;100.00
7832;BME280;3961;42.058;25.586;2023-02-23T02:08:50;62987.03;;;6.89;100.00
7832;BME280;3961;42.058;25.586;2023-02-23T02:11:20;62987.94;;;6.88;100.00
7832;BME280;3961;42.058;25.586;2023-02-23T02:22:41;63043.25;;;7.32;100.00
7832;BME280;3961;42.058;25.586;2023-02-23T02:28:01;63037.16;;;7.29;100.00
7832;BME280;3961;42.058;25.586;2023-02-23T02:43:51;63028.19;;;7.23;100.00
7832;BME280;3961;42.058;25.586;2023-02-23T02:46:26;62987.69;;;6.85;100.00
7832;BME280;3961;42.058;25.586;2023-02-23T02:49:02;62996.00;;;6.95;100.00
7832;BME280;3961;42.058;25.586;2023-02-23T02:51:45;62977.03;;;6.78;100.00
7832;BME280;3961;42.058;25.586;2023-02-23T02:54:18;62950.31;;;6.52;100.00
7832;BME280;3961;42.058;25.586;2023-02-23T02:56:48;62961.81;;;6.62;100.00
7832;BME280;3961;42.058;25.586;2023-02-23T02:59:18;62952.88;;;6.57;100.00
7832;BME280;3961;42.058;25.586;2023-02-23T03:02:05;62948.03;;;6.50;100.00
7832;BME280;3961;42.058;25.586;2023-02-23T03:04:49;62951.13;;;6.55;100.00
7832;BME280;3961;42.058;25.586;2023-02-23T03:07:44;62949.06;;;6.56;100.00
7832;BME280;3961;42.058;25.586;2023-02-23T03:10:46;62959.19;;;6.62;100.00
7832;BME280;3961;42.058;25.586;2023-02-23T03:20:20;62962.88;;;6.68;100.00
7832;BME280;3961;42.058;25.586;2023-02-23T03:26:35;62871.59;;;5.83;100.00
7832;BME280;3961;42.058;25.586;2023-02-23T03:32:50;62856.00;;;5.73;100.00
7832;BME280;3961;42.058;25.586;2023-02-23T03:36:09;62872.38;;;5.86;100.00
7832;BME280;3961;42.058;25.586;2023-02-23T03:39:24;62881.94;;;5.92;100.00
7832;BME280;3961;42.058;25.586;2023-02-23T03:42:15;62861.81;;;5.74;100.00
7832;BME280;3961;42.058;25.586;2023-02-23T03:45:07;62881.53;;;5.98;100.00
7832;BME280;3961;42.058;25.586;2023-02-23T03:47:54;62867.91;;;5.77;100.00
7832;BME280;3961;42.058;25.586;2023-02-23T03:50:45;62834.50;;;5.52;100.00
7832;BME280;3961;42.058;25.586;2023-02-23T03:53:35;62860.34;;;5.75;100.00
7832;BME280;3961;42.058;25.586;2023-02-23T03:56:25;62859.19;;;5.74;100.00
7832;BME280;3961;42.058;25.586;2023-02-23T03:59:10;62884.00;;;5.91;100.00
7832;BME280;3961;42.058;25.586;2023-02-23T04:01:56;62894.16;;;6.10;100.00
7832;BME280;3961;42.058;25.586;2023-02-23T04:04:41;62881.84;;;5.96;100.00
7832;BME280;3961;42.058;25.586;2023-02-23T04:07:28;62894.59;;;6.03;100.00
7832;BME280;3961;42.058;25.586;2023-02-23T04:10:11;62899.44;;;6.10;100.00
7832;BME280;3961;42.058;25.586;2023-02-23T04:13:13;62908.59;;;6.18;100.00
7832;BME280;3961;42.058;25.586;2023-02-23T04:16:02;62913.78;;;6.22;100.00
7832;BME280;3961;42.058;25.586;2023-02-23T04:18:30;62924.69;;;6.32;100.00
7832;BME280;3961;42.058;25.586;2023-02-23T04:20:57;62905.97;;;6.18;100.00
7832;BME280;3961;42.058;25.586;2023-02-23T04:23:23;62920.91;;;6.31;100.00
7832;BME280;3961;42.058;25.586;2023-02-23T04:25:50;62946.31;;;6.49;100.00
7832;BME280;3961;42.058;25.586;2023-02-23T04:28:17;62920.91;;;6.31;100.00
7832;BME280;3961;42.058;25.586;2023-02-23T04:30:43;62937.69;;;6.41;100.00
7832;BME280;3961;42.058;25.586;2023-02-23T04:33:09;62943.69;;;6.49;100.00
7832;BME280;3961;42.058;25.586;2023-02-23T04:35:34;62941.97;;;6.47;100.00
7832;BME280;3961;42.058;25.586;2023-02-23T04:38:00;62939.66;;;6.45;100.00
7832;BME280;3961;42.058;25.586;2023-02-23T04:40:26;62925.84;;;6.33;100.00
7832;BME280;3961;42.058;25.586;2023-02-23T04:42:52;62920.69;;;6.28;100.00
7832;BME280;3961;42.058;25.586;2023-02-23T04:45:19;62919.78;;;6.30;100.00
7832;BME280;3961;42.058;25.586;2023-02-23T04:47:44;62927.25;;;6.36;100.00
7832;BME280;3961;42.058;25.586;2023-02-23T04:50:11;62917.47;;;6.28;100.00
7832;BME280;3961;42.058;25.586;2023-02-23T04:52:36;62936.78;;;6.43;100.00
7832;BME280;3961;42.058;25.586;2023-02-23T04:55:04;62949.16;;;6.51;100.00
7832;BME280;3961;42.058;25.586;2023-02-23T04:57:32;62921.25;;;6.29;100.00
7832;BME280;3961;42.058;25.586;2023-02-23T04:59:58;62949.75;;;6.52;100.00
7832;BME280;3961;42.058;25.586;2023-02-23T05:02:24;62946.31;;;6.49;100.00
7832;BME280;3961;42.058;25.586;2023-02-23T05:04:50;62928.41;;;6.37;100.00
7832;BME280;3961;42.058;25.586;2023-02-23T05:07:16;62937.69;;;6.41;100.00
7832;BME280;3961;42.058;25.586;2023-02-23T05:09:42;62931.59;;;6.38;100.00
7832;BME280;3961;42.058;25.586;2023-02-23T05:12:07;62917.22;;;6.25;100.00
7832;BME280;3961;42.058;25.586;2023-02-23T05:14:33;62903.44;;;6.13;100.00
7832;BME280;3961;42.058;25.586;2023-02-23T05:16:59;62925.94;;;6.28;100.00
7832;BME280;3961;42.058;25.586;2023-02-23T05:19:24;62906.53;;;6.18;100.00
7832;BME280;3961;42.058;25.586;2023-02-23T05:21:50;62869.53;;;5.83;100.00
7832;BME280;3961;42.058;25.586;2023-02-23T05:24:17;62865.03;;;5.74;100.00
7832;BME280;3961;42.058;25.586;2023-02-23T05:26:43;62832.22;;;5.50;100.00
7832;BME280;3961;42.058;25.586;2023-02-23T05:29:09;62793.19;;;5.16;100.00
7832;BME280;3961;42.058;25.586;2023-02-23T05:31:35;62845.66;;;5.64;100.00
7832;BME280;3961;42.058;25.586;2023-02-23T05:34:00;62883.91;;;5.96;100.00
7832;BME280;3961;42.058;25.586;2023-02-23T05:36:26;62912.06;;;6.21;100.00
7832;BME280;3961;42.058;25.586;2023-02-23T05:38:51;62889.09;;;6.00;100.00
7832;BME280;3961;42.058;25.586;2023-02-23T05:41:18;62913.22;;;6.22;100.00
7832;BME280;3961;42.058;25.586;2023-02-23T05:43:44;62917.22;;;6.25;100.00
7832;BME280;3961;42.058;25.586;2023-02-23T05:46:14;62871.81;;;5.85;100.00
7832;BME280;3961;42.058;25.586;2023-02-23T05:48:39;62853.44;;;5.69;100.00
7832;BME280;3961;42.058;25.586;2023-02-23T05:51:09;62896.88;;;6.05;100.00
7832;BME280;3961;42.058;25.586;2023-02-23T05:53:35;62920.69;;;6.28;100.00
7832;BME280;3961;42.058;25.586;2023-02-23T05:56:02;62911.16;;;6.22;100.00
7832;BME280;3961;42.058;25.586;2023-02-23T05:58:28;62878.50;;;5.89;100.00
7832;BME280;3961;42.058;25.586;2023-02-23T06:00:54;62880.22;;;5.90;100.00
7832;BME280;3961;42.058;25.586;2023-02-23T06:03:19;62900.00;;;6.10;100.00
7832;BME280;3961;42.058;25.586;2023-02-23T06:05:49;62899.66;;;6.12;100.00
7832;BME280;3961;42.058;25.586;2023-02-23T06:08:16;62911.72;;;6.23;100.00
7832;BME280;3961;42.058;25.586;2023-02-23T06:10:41;62913.44;;;6.24;100.00
7832;BME280;3961;42.058;25.586;2023-02-23T06:13:07;62922.88;;;6.35;100.00
7832;BME280;3961;42.058;25.586;2023-02-23T06:15:33;62868.97;;;5.83;100.00
7832;BME280;3961;42.058;25.586;2023-02-23T06:17:58;62917.00;;;6.23;100.00
7832;BME280;3961;42.058;25.586;2023-02-23T06:20:24;62910.34;;;6.19;100.00
7832;BME280;3961;42.058;25.586;2023-02-23T06:22:49;62920.34;;;6.30;100.00
7832;BME280;3961;42.058;25.586;2023-02-23T06:25:15;62921.00;;;6.26;100.00
7832;BME280;3961;42.058;25.586;2023-02-23T06:27:40;62914.34;;;6.23;100.00
7832;BME280;3961;42.058;25.586;2023-02-23T06:30:07;62904.84;;;6.17;100.00
7832;BME280;3961;42.058;25.586;2023-02-23T06:32:33;62929.63;;;6.34;100.00
7832;BME280;3961;42.058;25.586;2023-02-23T06:34:58;62934.25;;;6.38;100.00
7832;BME280;3961;42.058;25.586;2023-02-23T06:37:24;62936.53;;;6.40;100.00
7832;BME280;3961;42.058;25.586;2023-02-23T06:39:49;62925.84;;;6.33;100.00
7832;BME280;3961;42.058;25.586;2023-02-23T06:42:15;62898.28;;;6.09;100.00
7832;BME280;3961;42.058;25.586;2023-02-23T06:44:41;62908.06;;;6.17;100.00
7832;BME280;3961;42.058;25.586;2023-02-23T06:47:07;62916.66;;;6.25;100.00
7832;BME280;3961;42.058;25.586;2023-02-23T06:49:33;62935.88;;;6.44;100.00
7832;BME280;3961;42.058;25.586;2023-02-23T06:51:58;62932.41;;;6.41;100.00
7832;BME280;3961;42.058;25.586;2023-02-23T06:54:24;62946.78;;;6.54;100.00
7832;BME280;3961;42.058;25.586;2023-02-23T06:56:50;62952.53;;;6.59;100.00
7832;BME280;3961;42.058;25.586;2023-02-23T06:59:17;62958.94;;;6.60;100.00
7832;BME280;3961;42.058;25.586;2023-02-23T07:01:43;62960.34;;;6.63;100.00
7832;BME280;3961;42.058;25.586;2023-02-23T07:04:10;62989.41;;;6.87;100.00
7832;BME280;3961;42.058;25.586;2023-02-23T07:06:36;63002.91;;;7.01;100.00
7832;BME280;3961;42.058;25.586;2023-02-23T07:09:03;62978.75;;;6.80;100.00
7832;BME280;3961;42.058;25.586;2023-02-23T07:11:30;63003.22;;;6.99;100.00
7832;BME280;3961;42.058;25.586;2023-02-23T07:13:59;63356.78;;;10.08;100.00
7832;BME280;3961;42.058;25.586;2023-02-23T07:16:26;63486.09;;;11.26;100.00
7832;BME280;3961;42.058;25.586;2023-02-23T07:18:53;63600.63;;;12.27;100.00
7832;BME280;3961;42.058;25.586;2023-02-23T07:21:19;63441.94;;;10.85;100.00
7832;BME280;3961;42.058;25.586;2023-02-23T07:23:45;63301.31;;;9.64;100.00
7832;BME280;3961;42.058;25.586;2023-02-23T07:26:16;63139.19;;;8.26;100.00
7832;BME280;3961;42.058;25.586;2023-02-23T07:28:43;63109.69;;;7.93;100.00
7832;BME280;3961;42.058;25.586;2023-02-23T07:31:09;63163.75;;;8.45;100.00
7832;BME280;3961;42.058;25.586;2023-02-23T07:33:34;63120.88;;;8.05;100.00
7832;BME280;3961;42.058;25.586;2023-02-23T07:36:00;63089.56;;;7.75;100.00
7832;BME280;3961;42.058;25.586;2023-02-23T07:38:26;63099.91;;;7.84;100.00
7832;BME280;3961;42.058;25.586;2023-02-23T07:40:51;63088.06;;;7.76;100.00
7832;BME280;3961;42.058;25.586;2023-02-23T07:43:17;63047.44;;;7.43;100.00
7832;BME280;3961;42.058;25.586;2023-02-23T07:45:48;63034.53;;;7.29;100.00
7832;BME280;3961;42.058;25.586;2023-02-23T07:48:14;63048.00;;;7.43;100.00
7832;BME280;3961;42.058;25.586;2023-02-23T07:50:40;63037.75;;;7.29;100.00
7832;BME280;3961;42.058;25.586;2023-02-23T07:53:06;62971.84;;;6.73;100.00
7832;BME280;3961;42.058;25.586;2023-02-23T07:55:31;62985.41;;;6.83;100.00
7832;BME280;3961;42.058;25.586;2023-02-23T07:57:57;62983.91;;;6.84;100.00
7832;BME280;3961;42.058;25.586;2023-02-23T08:00:22;62990.56;;;6.88;100.00
7832;BME280;3961;42.058;25.586;2023-02-23T08:02:50;62956.88;;;6.60;100.00
7832;BME280;3961;42.058;25.586;2023-02-23T08:05:18;62978.41;;;6.82;100.00
7832;BME280;3961;42.058;25.586;2023-02-23T08:07:44;62971.75;;;6.78;100.00
7832;BME280;3961;42.058;25.586;2023-02-23T08:10:10;62990.81;;;6.90;100.00
7832;BME280;3961;42.058;25.586;2023-02-23T08:12:36;63025.41;;;7.16;100.00
7832;BME280;3961;42.058;25.586;2023-02-23T08:15:02;63065.94;;;7.54;100.00
7832;BME280;3961;42.058;25.586;2023-02-23T08:17:36;63085.53;;;7.71;100.00
7832;BME280;3961;42.058;25.586;2023-02-23T08:20:04;63136.28;;;8.12;100.00
7832;BME280;3961;42.058;25.586;2023-02-23T08:22:30;63121.44;;;8.05;100.00
7832;BME280;3961;42.058;25.586;2023-02-23T08:24:55;63087.72;;;7.78;100.00
7832;BME280;3961;42.058;25.586;2023-02-23T08:27:21;63025.09;;;7.18;100.00
7832;BME280;3961;42.058;25.586;2023-02-23T08:29:46;63083.47;;;7.72;100.00
7832;BME280;3961;42.058;25.586;2023-02-23T08:32:12;63067.00;;;7.60;100.00
7832;BME280;3961;42.058;25.586;2023-02-23T08:34:39;63069.06;;;7.59;100.00
7832;BME280;3961;42.058;25.586;2023-02-23T08:37:06;63101.97;;;7.84;100.00
7832;BME280;3961;42.058;25.586;2023-02-23T08:39:31;63071.69;;;7.59;100.00
7832;BME280;3961;42.058;25.586;2023-02-23T08:41:57;63081.16;;;7.70;100.00
7832;BME280;3961;42.058;25.586;2023-02-23T08:44:23;63067.00;;;7.60;100.00
7832;BME280;3961;42.058;25.586;2023-02-23T08:46:48;63071.03;;;7.63;100.00
7832;BME280;3961;42.058;25.586;2023-02-23T08:49:14;63068.25;;;7.56;100.00
7832;BME280;3961;42.058;25.586;2023-02-23T08:51:39;63094.75;;;7.80;100.00
7832;BME280;3961;42.058;25.586;2023-02-23T08:54:06;63088.63;;;7.77;100.00
7832;BME280;3961;42.058;25.586;2023-02-23T08:56:37;63037.41;;;7.31;100.00
7832;BME280;3961;42.058;25.586;2023-02-23T08:59:03;63090.38;;;7.78;100.00
7832;BME280;3961;42.058;25.586;2023-02-23T09:01:29;63088.41;;;7.74;100.00
7832;BME280;3961;42.058;25.586;2023-02-23T09:03:55;63064.13;;;7.57;100.00
7832;BME280;3961;42.058;25.586;2023-02-23T09:06:22;63112.00;;;7.95;100.00
7832;BME280;3961;42.058;25.586;2023-02-23T09:08:49;63115.94;;;8.03;100.00
7832;BME280;3961;42.058;25.586;2023-02-23T09:11:15;63099.91;;;7.84;100.00
7832;BME280;3961;42.058;25.586;2023-02-23T09:13:41;63147.88;;;8.33;100.00
7832;BME280;3961;42.058;25.586;2023-02-23T09:16:06;63161.91;;;8.36;100.00
7832;BME280;3961;42.058;25.586;2023-02-23T09:18:33;63115.78;;;7.96;100.00
7832;BME280;3961;42.058;25.586;2023-02-23T09:20:58;63145.06;;;8.26;100.00
7832;BME280;3961;42.058;25.586;2023-02-23T09:23:32;63118.56;;;8.03;100.00
7832;BME280;3961;42.058;25.586;2023-02-23T09:26:02;63139.53;;;8.24;100.00
7832;BME280;3961;42.058;25.586;2023-02-23T09:28:27;63144.25;;;8.23;100.00
7832;BME280;3961;42.058;25.586;2023-02-23T09:30:55;63148.63;;;8.25;100.00
7832;BME280;3961;42.058;25.586;2023-02-23T09:33:20;63158.91;;;8.38;100.00
7832;BME280;3961;42.058;25.586;2023-02-23T09:35:46;63166.38;;;8.45;100.00
7832;BME280;3961;42.058;25.586;2023-02-23T09:38:12;63132.97;;;8.16;100.00
7832;BME280;3961;42.058;25.586;2023-02-23T09:40:46;63153.63;;;8.38;100.00
7832;BME280;3961;42.058;25.586;2023-02-23T09:43:41;63163.88;;;8.40;100.00
7832;BME280;3961;42.058;25.586;2023-02-23T09:48:59;63596.00;;;12.23;100.00
7832;BME280;3961;42.058;25.586;2023-02-23T09:51:26;63601.19;;;12.27;100.00
7832;BME280;3961;42.058;25.586;2023-02-23T09:53:55;63740.75;;;13.50;100.00
7832;BME280;3961;42.058;25.586;2023-02-23T09:56:24;63837.31;;;14.32;100.00
7832;BME280;3961;42.058;25.586;2023-02-23T09:58:53;63946.09;;;15.29;96.38
7832;BME280;3961;42.058;25.586;2023-02-23T10:04:31;63823.41;;;14.20;100.00
7832;BME280;3961;42.058;25.586;2023-02-23T10:07:06;63736.94;;;13.49;100.00
7832;BME280;3961;42.058;25.586;2023-02-23T10:20:20;63375.78;;;10.29;100.00
7832;BME280;3961;42.058;25.586;2023-02-23T10:22:50;63364.22;;;10.19;100.00
7832;BME280;3961;42.058;25.586;2023-02-23T10:25:20;63372.88;;;10.27;100.00
7832;BME280;3961;42.058;25.586;2023-02-23T10:27:49;63351.97;;;10.01;100.00
7832;BME280;3961;42.058;25.586;2023-02-23T10:30:25;63335.34;;;9.94;100.00
7832;BME280;3961;42.058;25.586;2023-02-23T10:35:28;63329.34;;;9.86;100.00
7832;BME280;3961;42.058;25.586;2023-02-23T10:37:55;63277.31;;;9.45;100.00
7832;BME280;3961;42.058;25.586;2023-02-23T10:40:24;63281.09;;;9.46;100.00
7832;BME280;3961;42.058;25.586;2023-02-23T10:42:52;63292.88;;;9.59;100.00
7832;BME280;3961;42.058;25.586;2023-02-23T10:45:24;63279.38;;;9.44;100.00
7832;BME280;3961;42.058;25.586;2023-02-23T10:47:54;63284.31;;;9.47;100.00
7832;BME280;3961;42.058;25.586;2023-02-23T10:50:22;63294.03;;;9.60;100.00
7832;BME280;3961;42.058;25.586;2023-02-23T10:52:52;63298.19;;;9.59;100.00
7832;BME280;3961;42.058;25.586;2023-02-23T10:55:27;63287.09;;;9.54;100.00
7832;BME280;3961;42.058;25.586;2023-02-23T10:58:15;63281.34;;;9.49;100.00
7832;BME280;3961;42.058;25.586;2023-02-23T11:01:08;63286.88;;;9.51;100.00
7832;BME280;3961;42.058;25.586;2023-02-23T11:03:39;63288.84;;;9.55;100.00
7832;BME280;3961;42.058;25.586;2023-02-23T11:06:05;63297.75;;;9.65;100.00
7832;BME280;3961;42.058;25.586;2023-02-23T11:08:32;63318.59;;;9.79;100.00
7832;BME280;3961;42.058;25.586;2023-02-23T11:11:05;63307.06;;;9.69;100.00
7832;BME280;3961;42.058;25.586;2023-02-23T11:13:36;63281.34;;;9.49;100.00
7832;BME280;3961;42.058;25.586;2023-02-23T11:16:14;63273.03;;;9.39;100.00
7832;BME280;3961;42.058;25.586;2023-02-23T11:21:37;63304.53;;;9.64;100.00
7832;BME280;3961;42.058;25.586;2023-02-23T11:24:16;63310.53;;;9.72;100.00
7832;BME280;3961;42.058;25.586;2023-02-23T11:26:45;63292.88;;;9.59;100.00
7832;BME280;3961;42.058;25.586;2023-02-23T11:29:26;63311.78;;;9.68;100.00
7832;BME280;3961;42.058;25.586;2023-02-23T11:31:56;63326.44;;;9.84;100.00
7832;BME280;3961;42.058;25.586;2023-02-23T11:34:31;63349.19;;;10.06;100.00
7832;BME280;3961;42.058;25.586;2023-02-23T11:37:06;63355.78;;;10.14;100.00
7832;BME280;3961;42.058;25.586;2023-02-23T11:39:32;63369.66;;;10.26;100.00
7832;BME280;3961;42.058;25.586;2023-02-23T11:42:12;63375.19;;;10.29;100.00
7832;BME280;3961;42.058;25.586;2023-02-23T11:44:39;63378.41;;;10.29;100.00
7832;BME280;3961;42.058;25.586;2023-02-23T11:47:13;63378.09;;;10.31;100.00
7832;BME280;3961;42.058;25.586;2023-02-23T11:49:38;63380.16;;;10.31;100.00
7832;BME280;3961;42.058;25.586;2023-02-23T11:52:14;63389.03;;;10.41;100.00
7832;BME280;3961;42.058;25.586;2023-02-23T11:54:49;63393.31;;;10.47;100.00
7832;BME280;3961;42.058;25.586;2023-02-23T11:57:28;63374.97;;;10.26;100.00
7832;BME280;3961;42.058;25.586;2023-02-23T11:59:55;63382.72;;;10.35;100.00
7832;BME280;3961;42.058;25.586;2023-02-23T12:02:29;63378.66;;;10.32;100.00
7832;BME280;3961;42.058;25.586;2023-02-23T12:05:08;63427.84;;;10.70;100.00
7832;BME280;3961;42.058;25.586;2023-02-23T12:10:25;63423.47;;;10.69;100.00
7832;BME280;3961;42.058;25.586;2023-02-23T12:13:01;63422.91;;;10.68;100.00
7832;BME280;3961;42.058;25.586;2023-02-23T12:21:33;63415.63;;;10.64;100.00
7832;BME280;3961;42.058;25.586;2023-02-23T12:24:12;63430.97;;;10.75;100.00
7832;BME280;3961;42.058;25.586;2023-02-23T12:26:57;63447.16;;;10.90;100.00
7832;BME280;3961;42.058;25.586;2023-02-23T12:29:36;63440.44;;;10.86;100.00
7832;BME280;3961;42.058;25.586;2023-02-23T12:32:12;63427.72;;;10.75;100.00
7832;BME280;3961;42.058;25.586;2023-02-23T12:34:46;63454.31;;;10.98;100.00
7832;BME280;3961;42.058;25.586;2023-02-23T12:37:33;63428.88;;;10.76;100.00
7832;BME280;3961;42.058;25.586;2023-02-23T12:42:41;63464.13;;;11.07;100.00
7832;BME280;3961;42.058;25.586;2023-02-23T12:45:28;63451.19;;;10.93;100.00
7832;BME280;3961;42.058;25.586;2023-02-23T12:48:11;63447.72;;;10.90;100.00
7832;BME280;3961;42.058;25.586;2023-02-23T12:50:54;63452.94;;;10.95;100.00
7832;BME280;3961;42.058;25.586;2023-02-23T13:01:38;63445.06;;;10.90;100.00
7832;BME280;3961;42.058;25.586;2023-02-23T13:07:05;63467.03;;;11.09;100.00
7832;BME280;3961;42.058;25.586;2023-02-23T13:10:03;63489.09;;;11.24;100.00
7832;BME280;3961;42.058;25.586;2023-02-23T13:12:58;63504.59;;;11.42;100.00
7832;BME280;3961;42.058;25.586;2023-02-23T13:15:37;63500.31;;;11.36;100.00
7832;BME280;3961;42.058;25.586;2023-02-23T13:26:28;63515.34;;;11.50;100.00
7832;BME280;3961;42.058;25.586;2023-02-23T13:29:07;63495.94;;;11.35;100.00
7832;BME280;3961;42.058;25.586;2023-02-23T13:31:36;63494.88;;;11.29;100.00
7832;BME280;3961;42.058;25.586;2023-02-23T13:34:07;63478.81;;;11.22;100.00
7832;BME280;3961;42.058;25.586;2023-02-23T13:36:34;63492.81;;;11.30;100.00
7832;BME280;3961;42.058;25.586;2023-02-23T13:39:14;63482.06;;;11.23;100.00
7832;BME280;3961;42.058;25.586;2023-02-23T13:44:23;63485.41;;;11.30;100.00
7832;BME280;3961;42.058;25.586;2023-02-23T13:49:56;63503.66;;;11.44;100.00
7832;BME280;3961;42.058;25.586;2023-02-23T13:52:31;63508.97;;;11.44;100.00
7832;BME280;3961;42.058;25.586;2023-02-23T13:54:59;63513.84;;;11.51;100.00
7832;BME280;3961;42.058;25.586;2023-02-23T13:57:30;63508.97;;;11.44;100.00
7832;BME280;3961;42.058;25.586;2023-02-23T13:59:57;63484.13;;;11.22;100.00
7832;BME280;3961;42.058;25.586;2023-02-23T14:02:38;63498.59;;;11.35;100.00
7832;BME280;3961;42.058;25.586;2023-02-23T14:05:25;63498.81;;;11.37;100.00
7832;BME280;3961;42.058;25.586;2023-02-23T14:07:54;63500.91;;;11.37;100.00
7832;BME280;3961;42.058;25.586;2023-02-23T14:10:24;63519.97;;;11.54;100.00
7832;BME280;3961;42.058;25.586;2023-02-23T14:15:45;63501.13;;;11.39;100.00
7832;BME280;3961;42.058;25.586;2023-02-23T14:21:31;63523.44;;;11.57;100.00
7832;BME280;3961;42.058;25.586;2023-02-23T14:23:47;63499.97;;;11.38;100.00
7832;BME280;3961;42.058;25.586;2023-02-23T14:29:20;63513.59;;;11.48;100.00
7832;BME280;3961;42.058;25.586;2023-02-23T14:34:51;63478.59;;;11.20;100.00
7832;BME280;3961;42.058;25.586;2023-02-23T14:37:36;63524.25;;;11.60;100.00
7832;BME280;3961;42.058;25.586;2023-02-23T14:40:11;63536.38;;;11.70;100.00
7832;BME280;3961;42.058;25.586;2023-02-23T14:42:38;63474.19;;;11.18;100.00
7832;BME280;3961;42.058;25.586;2023-02-23T14:45:17;63505.75;;;11.43;100.00
7832;BME280;3961;42.058;25.586;2023-02-23T14:47:46;63506.44;;;11.39;100.00
7832;BME280;3961;42.058;25.586;2023-02-23T14:50:21;63505.41;;;11.45;100.00
7832;BME280;3961;42.058;25.586;2023-02-23T14:52:49;63507.81;;;11.43;100.00
7832;BME280;3961;42.058;25.586;2023-02-23T14:55:27;63486.91;;;11.29;100.00
7832;BME280;3961;42.058;25.586;2023-02-23T14:57:53;63505.50;;;11.41;100.00
7832;BME280;3961;42.058;25.586;2023-02-23T15:00:29;63498.47;;;11.39;100.00
7832;BME280;3961;42.058;25.586;2023-02-23T15:03:02;63494.19;;;11.33;100.00
7832;BME280;3961;42.058;25.586;2023-02-23T15:05:32;63497.66;;;11.36;100.00
7832;BME280;3961;42.058;25.586;2023-02-23T15:08:00;63486.69;;;11.27;100.00
7832;BME280;3961;42.058;25.586;2023-02-23T15:10:34;63496.50;;;11.35;100.00
7832;BME280;3961;42.058;25.586;2023-02-23T15:13:08;63504.59;;;11.42;100.00
7832;BME280;3961;42.058;25.586;2023-02-23T15:15:34;63494.44;;;11.36;100.00
7832;BME280;3961;42.058;25.586;2023-02-23T15:18:01;63494.78;;;11.34;100.00
7832;BME280;3961;42.058;25.586;2023-02-23T15:20:32;63496.28;;;11.33;100.00